createdAt,value
2022-08-17T00:00:34.404Z,12.23
2022-08-17T00:03:08.261Z,12.70
2022-08-17T00:05:41.516Z,11.90
2022-08-17T00:08:10.093Z,12.63
2022-08-17T00:10:38.373Z,12.07
2022-08-17T00:13:07.820Z,12.75
2022-08-17T00:15:36.114Z,12.70
2022-08-17T00:19:07.858Z,14.98
2022-08-17T00:20:54.830Z,13.52
2022-08-17T00:23:23.074Z,12.80
2022-08-17T00:25:51.474Z,12.77
2022-08-17T00:28:20.181Z,13.60
2022-08-17T00:30:53.027Z,12.63
2022-08-17T00:33:24.108Z,13.10
2022-08-17T00:35:52.398Z,13.23
2022-08-17T00:38:21.977Z,13.65
2022-08-17T00:40:51.690Z,13.02
2022-08-17T00:43:21.606Z,14.18
2022-08-17T00:45:50.763Z,13.55
2022-08-17T00:48:29.178Z,13.43
2022-08-17T00:51:00.407Z,13.95
2022-08-17T00:53:31.746Z,13.38
2022-08-17T00:56:01.767Z,14.02
2022-08-17T00:58:36.314Z,14.18
2022-08-17T01:01:05.793Z,14.02
2022-08-17T01:03:34.869Z,14.43
2022-08-17T01:06:04.509Z,14.25
2022-08-17T01:08:34.686Z,15.38
2022-08-17T01:11:05.446Z,13.65
2022-08-17T01:13:40.770Z,15.18
2022-08-17T01:16:13.275Z,14.23
2022-08-17T01:18:42.139Z,14.77
2022-08-17T01:21:12.601Z,15.55
2022-08-17T01:23:42.991Z,14.93
2022-08-17T01:26:11.254Z,14.32
2022-08-17T01:28:53.722Z,14.75
2022-08-17T01:31:26.745Z,16.80
2022-08-17T01:33:54.999Z,15.70
2022-08-17T01:36:23.694Z,15.23
2022-08-17T01:38:53.326Z,15.25
2022-08-17T01:41:23.451Z,15.00
2022-08-17T01:43:53.713Z,14.80
2022-08-17T01:46:23.629Z,15.35
2022-08-17T01:48:51.862Z,16.65
2022-08-17T01:51:20.990Z,16.17
2022-08-17T01:53:50.290Z,18.02
2022-08-17T01:56:21.188Z,17.48
2022-08-17T01:58:49.505Z,17.15
2022-08-17T02:01:18.705Z,17.77
2022-08-17T02:03:59.456Z,16.92
2022-08-17T02:06:30.361Z,18.15
2022-08-17T02:09:02.992Z,18.38
2022-08-17T02:11:34.413Z,16.02
2022-08-17T02:14:04.038Z,17.85
2022-08-17T02:16:37.082Z,18.27
2022-08-17T02:19:06.502Z,19.05
2022-08-17T02:21:34.777Z,18.35
2022-08-17T02:24:03.103Z,18.35
2022-08-17T02:26:32.801Z,19.92
2022-08-17T02:29:01.060Z,19.63
2022-08-17T02:31:31.035Z,18.73
2022-08-17T02:34:04.476Z,20.23
2022-08-17T02:36:33.730Z,34.25
2022-08-17T02:39:02.211Z,19.98
2022-08-17T02:41:30.489Z,21.83
2022-08-17T02:44:00.169Z,19.70
2022-08-17T02:46:28.548Z,19.83
2022-08-17T02:48:56.794Z,20.75
2022-08-17T02:51:25.039Z,20.70
2022-08-17T02:53:53.362Z,21.88
2022-08-17T02:56:41.585Z,19.40
2022-08-17T02:59:11.209Z,19.77
2022-08-17T03:01:39.533Z,19.70
2022-08-17T03:04:07.779Z,20.95
2022-08-17T03:06:36.081Z,20.80
2022-08-17T03:09:04.345Z,20.42
2022-08-17T03:11:32.699Z,20.75
2022-08-17T03:14:00.953Z,21.20
2022-08-17T03:16:30.572Z,22.23
2022-08-17T03:18:58.855Z,23.38
2022-08-17T03:21:27.258Z,22.67
2022-08-17T03:23:55.510Z,21.77
2022-08-17T03:26:23.705Z,22.58
2022-08-17T03:28:57.937Z,23.65
2022-08-17T03:31:26.242Z,21.80
2022-08-17T03:33:56.327Z,22.58
2022-08-17T03:36:24.753Z,22.15
2022-08-17T03:38:53.001Z,22.90
2022-08-17T03:41:23.157Z,22.30
2022-08-17T03:43:51.399Z,22.45
2022-08-17T03:46:37.292Z,20.58
2022-08-17T03:49:25.507Z,22.60
2022-08-17T03:52:11.473Z,23.17
2022-08-17T03:54:57.489Z,23.52
2022-08-17T03:57:25.902Z,23.92
2022-08-17T03:59:54.468Z,23.83
2022-08-17T04:02:25.083Z,23.35
2022-08-17T04:04:54.760Z,23.98
2022-08-17T04:07:24.620Z,24.00
2022-08-17T04:09:52.867Z,22.73
2022-08-17T04:12:22.288Z,23.42
2022-08-17T04:14:51.699Z,25.15
2022-08-17T04:17:22.235Z,25.17
2022-08-17T04:19:50.524Z,24.95
2022-08-17T04:22:31.766Z,24.48
2022-08-17T04:25:01.945Z,24.95
2022-08-17T04:27:30.177Z,23.85
2022-08-17T04:29:58.476Z,23.20
2022-08-17T04:33:03.419Z,24.35
2022-08-17T04:35:18.746Z,24.48
2022-08-17T04:37:48.445Z,26.58
2022-08-17T04:40:34.665Z,25.17
2022-08-17T04:43:03.845Z,24.08
2022-08-17T04:45:32.612Z,25.17
2022-08-17T04:48:01.172Z,24.63
2022-08-17T04:50:29.463Z,25.48
2022-08-17T04:52:59.462Z,23.63
2022-08-17T04:55:28.002Z,24.17
2022-08-17T04:57:56.598Z,24.70
2022-08-17T05:00:25.901Z,24.17
2022-08-17T05:02:55.610Z,23.75
2022-08-17T05:05:26.179Z,23.45
2022-08-17T05:07:54.769Z,23.50
2022-08-17T05:10:24.462Z,24.58
2022-08-17T05:12:59.575Z,22.55
2022-08-17T05:15:28.284Z,21.88
2022-08-17T05:18:01.201Z,21.38
2022-08-17T05:20:29.931Z,22.70
2022-08-17T05:23:00.776Z,21.60
2022-08-17T05:25:34.436Z,21.88
2022-08-17T05:28:07.905Z,23.23
2022-08-17T05:30:37.975Z,22.35
2022-08-17T05:33:07.079Z,23.23
2022-08-17T05:35:36.498Z,24.67
2022-08-17T05:38:04.907Z,23.30
2022-08-17T05:40:34.605Z,22.98
2022-08-17T05:43:07.104Z,23.23
2022-08-17T05:45:55.828Z,23.70
2022-08-17T05:48:39.765Z,23.90
2022-08-17T05:51:38.861Z,26.00
2022-08-17T05:54:11.534Z,21.15
2022-08-17T05:56:52.107Z,20.85
2022-08-17T05:59:24.217Z,20.20
2022-08-17T06:01:56.107Z,18.23
2022-08-17T06:04:29.651Z,19.10
2022-08-17T06:07:00.526Z,19.30
2022-08-17T06:09:36.864Z,18.23
2022-08-17T06:12:20.271Z,18.30
2022-08-17T06:14:59.396Z,19.30
2022-08-17T06:17:28.837Z,19.70
2022-08-17T06:19:59.734Z,19.52
2022-08-17T06:22:31.425Z,17.83
2022-08-17T06:25:02.390Z,18.35
2022-08-17T06:27:35.910Z,18.13
2022-08-17T06:30:09.144Z,18.13
2022-08-17T06:32:39.125Z,16.65
2022-08-17T06:35:08.436Z,16.92
2022-08-17T06:37:44.778Z,17.02
2022-08-17T06:40:20.859Z,16.38
2022-08-17T06:43:05.643Z,16.60
2022-08-17T06:45:37.710Z,16.58
2022-08-17T06:48:09.054Z,16.73
2022-08-17T06:50:38.702Z,15.23
2022-08-17T06:53:13.102Z,16.17
2022-08-17T06:55:45.273Z,16.13
2022-08-17T06:58:16.789Z,15.68
2022-08-17T07:00:47.179Z,16.95
2022-08-17T07:03:18.445Z,16.83
2022-08-17T07:05:56.736Z,16.75
2022-08-17T07:08:35.121Z,18.58
2022-08-17T07:11:07.075Z,16.75
2022-08-17T07:13:39.983Z,14.27
2022-08-17T07:16:14.683Z,14.98
2022-08-17T07:18:43.831Z,15.07
2022-08-17T07:21:20.707Z,14.75
2022-08-17T07:24:00.637Z,12.70
2022-08-17T07:26:29.601Z,13.63
2022-08-17T07:29:01.746Z,12.25
2022-08-17T07:31:31.543Z,13.25
2022-08-17T07:34:01.362Z,13.05
2022-08-17T07:36:33.731Z,12.50
2022-08-17T07:39:03.187Z,11.50
2022-08-17T07:41:53.042Z,11.25
2022-08-17T07:44:25.150Z,10.27
2022-08-17T07:47:11.359Z,11.00
2022-08-17T07:49:40.607Z,12.80
2022-08-17T07:52:48.494Z,10.18
2022-08-17T07:55:02.223Z,9.57
2022-08-17T07:57:35.624Z,11.77
2022-08-17T08:00:19.450Z,9.00
2022-08-17T08:03:13.427Z,8.80
2022-08-17T08:05:50.937Z,9.13
2022-08-17T08:08:26.285Z,9.50
2022-08-17T08:11:00.101Z,9.23
2022-08-17T08:13:30.249Z,9.48
2022-08-17T08:16:16.037Z,9.45
2022-08-17T08:18:54.269Z,9.45
2022-08-17T08:21:29.969Z,9.23
2022-08-17T08:24:01.379Z,9.05
2022-08-17T08:26:32.940Z,9.57
2022-08-17T08:29:04.959Z,9.18
2022-08-17T08:31:42.336Z,10.82
2022-08-17T08:34:53.184Z,7.95
2022-08-17T08:37:17.653Z,10.23
2022-08-17T08:39:55.300Z,7.72
2022-08-17T08:42:26.412Z,8.32
2022-08-17T08:44:59.926Z,8.00
2022-08-17T08:47:45.663Z,8.95
2022-08-17T08:50:30.184Z,6.57
2022-08-17T08:53:11.969Z,6.10
2022-08-17T08:55:47.130Z,6.70
2022-08-17T08:58:31.908Z,6.53
2022-08-17T09:01:17.641Z,6.88
2022-08-17T09:04:19.522Z,7.50
2022-08-17T09:06:52.012Z,6.65
2022-08-17T09:09:25.894Z,8.18
2022-08-17T09:12:02.543Z,6.07
2022-08-17T09:14:44.922Z,5.97
2022-08-17T09:17:16.512Z,8.02
2022-08-17T09:19:50.303Z,6.38
2022-08-17T09:22:24.530Z,9.38
2022-08-17T09:24:58.366Z,7.05
2022-08-17T09:27:29.206Z,8.05
2022-08-17T09:29:58.979Z,6.00
2022-08-17T09:32:35.858Z,8.13
2022-08-17T09:35:07.538Z,8.20
2022-08-17T09:37:45.482Z,6.38
2022-08-17T09:40:15.583Z,5.88
2022-08-17T09:42:47.112Z,5.43
2022-08-17T09:45:25.556Z,6.78
2022-08-17T09:47:55.741Z,5.78
2022-08-17T09:51:04.006Z,6.30
2022-08-17T09:53:17.161Z,5.32
2022-08-17T09:55:53.728Z,7.20
2022-08-17T09:58:29.060Z,7.78
2022-08-17T10:00:59.548Z,6.40
2022-08-17T10:03:36.834Z,5.43
2022-08-17T10:06:13.212Z,6.50
2022-08-17T10:08:44.970Z,4.97
2022-08-17T10:11:22.320Z,8.43
2022-08-17T10:14:12.513Z,9.27
2022-08-17T10:16:57.928Z,8.25
2022-08-17T10:19:31.841Z,4.95
2022-08-17T10:22:34.710Z,5.15
2022-08-17T10:25:26.120Z,7.63
2022-08-17T10:28:03.154Z,8.52
2022-08-17T10:30:34.108Z,4.13
2022-08-17T10:33:03.569Z,5.80
2022-08-17T10:35:42.551Z,4.28
2022-08-17T10:38:29.259Z,6.60
2022-08-17T10:40:59.437Z,4.57
2022-08-17T10:43:34.125Z,4.78
2022-08-17T10:46:10.581Z,5.15
2022-08-17T10:49:23.916Z,8.75
2022-08-17T10:51:54.334Z,5.10
2022-08-17T10:54:37.529Z,7.90
2022-08-17T10:57:24.844Z,4.93
2022-08-17T10:59:53.674Z,5.47
2022-08-17T11:02:26.193Z,7.65
2022-08-17T11:04:59.934Z,6.00
2022-08-17T11:07:35.293Z,10.05
2022-08-17T11:10:15.293Z,5.93
2022-08-17T11:12:51.295Z,8.73
2022-08-17T11:15:25.642Z,4.80
2022-08-17T11:18:05.503Z,6.15
2022-08-17T11:20:41.628Z,10.70
2022-08-17T11:23:18.521Z,7.47
2022-08-17T11:25:50.111Z,5.32
2022-08-17T11:28:21.959Z,5.50
2022-08-17T11:30:52.394Z,8.80
2022-08-17T11:33:39.420Z,4.88
2022-08-17T11:36:14.155Z,12.05
2022-08-17T11:38:46.148Z,6.60
2022-08-17T11:41:20.122Z,7.10
2022-08-17T11:44:12.848Z,8.00
2022-08-17T11:47:08.826Z,7.47
2022-08-17T11:50:03.146Z,5.47
2022-08-17T11:52:39.414Z,5.53
2022-08-17T11:55:33.986Z,6.50
2022-08-17T11:58:01.619Z,7.65
2022-08-17T12:00:51.406Z,9.05
2022-08-17T12:03:27.680Z,4.57
2022-08-17T12:06:04.409Z,8.55
2022-08-17T12:08:34.307Z,5.43
2022-08-17T12:11:05.722Z,5.57
2022-08-17T12:13:39.866Z,6.68
2022-08-17T12:16:10.292Z,4.45
2022-08-17T12:18:41.921Z,7.65
2022-08-17T12:21:23.767Z,7.22
2022-08-17T12:23:56.657Z,7.60
2022-08-17T12:26:27.204Z,8.40
2022-08-17T12:28:58.211Z,7.10
2022-08-17T12:31:30.913Z,5.70
2022-08-17T12:34:00.432Z,4.95
2022-08-17T12:36:29.638Z,8.07
2022-08-17T12:39:14.011Z,6.22
2022-08-17T12:41:44.022Z,4.95
2022-08-17T12:44:15.427Z,5.55
2022-08-17T12:46:50.038Z,7.43
2022-08-17T12:49:26.421Z,5.13
2022-08-17T12:51:58.125Z,5.93
2022-08-17T12:54:30.418Z,5.07
2022-08-17T12:57:02.127Z,9.65
2022-08-17T12:59:33.032Z,12.57
2022-08-17T13:02:11.509Z,9.18
2022-08-17T13:04:41.751Z,5.10
2022-08-17T13:07:10.100Z,5.47
2022-08-17T13:09:40.370Z,6.07
2022-08-17T13:12:09.585Z,6.40
2022-08-17T13:14:37.967Z,5.95
2022-08-17T13:17:13.145Z,5.25
2022-08-17T13:19:48.657Z,7.45
2022-08-17T13:22:18.270Z,4.65
2022-08-17T13:24:54.415Z,5.43
2022-08-17T13:27:24.160Z,4.70
2022-08-17T13:29:53.903Z,5.22
2022-08-17T13:32:24.500Z,6.00
2022-08-17T13:35:12.648Z,4.80
2022-08-17T13:37:57.363Z,4.30
2022-08-17T13:40:33.985Z,6.65
2022-08-17T13:43:05.431Z,4.32
2022-08-17T13:45:39.345Z,4.07
2022-08-17T13:48:14.488Z,4.05
2022-08-17T13:50:45.026Z,3.88
2022-08-17T13:53:21.869Z,4.10
2022-08-17T13:55:51.878Z,3.67
2022-08-17T13:58:24.967Z,3.83
2022-08-17T14:00:53.514Z,4.38
2022-08-17T14:03:23.173Z,3.30
2022-08-17T14:05:52.405Z,5.50
2022-08-17T14:08:21.814Z,4.60
2022-08-17T14:10:52.772Z,3.92
2022-08-17T14:13:21.222Z,2.97
2022-08-17T14:15:55.636Z,6.18
2022-08-17T14:18:55.573Z,4.72
2022-08-17T14:21:14.870Z,4.95
2022-08-17T14:23:49.067Z,3.42
2022-08-17T14:26:23.281Z,4.43
2022-08-17T14:28:56.750Z,3.10
2022-08-17T14:31:27.550Z,3.15
2022-08-17T14:33:58.890Z,3.53
2022-08-17T14:36:27.430Z,3.05
2022-08-17T14:38:56.386Z,3.30
2022-08-17T14:41:24.725Z,3.63
2022-08-17T14:43:53.905Z,2.92
2022-08-17T14:46:22.567Z,2.90
2022-08-17T14:48:57.102Z,3.15
2022-08-17T14:51:27.552Z,3.13
2022-08-17T14:53:57.163Z,2.65
2022-08-17T14:56:25.573Z,2.75
2022-08-17T14:58:54.122Z,2.92
2022-08-17T15:01:24.368Z,3.47
2022-08-17T15:03:53.966Z,3.25
2022-08-17T15:06:23.581Z,4.28
2022-08-17T15:08:53.553Z,2.88
2022-08-17T15:11:21.869Z,3.10
2022-08-17T15:13:52.307Z,3.78
2022-08-17T15:16:21.478Z,3.90
2022-08-17T15:18:50.211Z,2.90
2022-08-17T15:21:18.691Z,3.28
2022-08-17T15:23:47.727Z,3.20
2022-08-17T15:26:17.521Z,6.80
2022-08-17T15:28:48.959Z,7.18
2022-08-17T15:31:31.693Z,11.50
2022-08-17T15:34:01.197Z,14.13
2022-08-17T15:36:29.585Z,16.77
2022-08-17T15:38:58.710Z,16.70
2022-08-17T15:41:28.356Z,18.58
2022-08-17T15:43:57.045Z,21.08
2022-08-17T15:46:26.594Z,18.65
2022-08-17T15:48:58.129Z,21.25
2022-08-17T15:51:27.727Z,22.02
2022-08-17T15:53:56.948Z,24.00
2022-08-17T15:56:26.467Z,24.05
2022-08-17T15:58:56.484Z,23.73
2022-08-17T16:03:01.187Z,23.80
2022-08-17T16:04:30.666Z,25.52
2022-08-17T16:06:59.585Z,27.10
2022-08-17T16:09:27.914Z,27.27
2022-08-17T16:11:56.648Z,27.33
2022-08-17T16:14:30.237Z,25.88
2022-08-17T16:17:03.506Z,27.23
2022-08-17T16:19:32.482Z,26.90
2022-08-17T16:22:00.822Z,26.15
2022-08-17T16:24:29.593Z,26.85
2022-08-17T16:26:58.011Z,26.73
2022-08-17T16:29:27.721Z,26.10
2022-08-17T16:31:56.002Z,24.88
2022-08-17T16:34:24.622Z,27.48
2022-08-17T16:36:56.165Z,26.83
2022-08-17T16:39:25.087Z,24.77
2022-08-17T16:41:53.333Z,26.75
2022-08-17T16:44:22.285Z,26.95
2022-08-17T16:46:51.911Z,27.10
2022-08-17T16:49:35.574Z,26.90
2022-08-17T16:52:06.614Z,25.25
2022-08-17T16:54:35.496Z,24.70
2022-08-17T16:57:05.113Z,26.00
2022-08-17T16:59:40.914Z,28.13
2022-08-17T17:02:14.570Z,27.02
2022-08-17T17:04:46.767Z,26.42
2022-08-17T17:07:21.615Z,27.85
2022-08-17T17:09:52.519Z,26.30
2022-08-17T17:13:02.971Z,26.92
2022-08-17T17:15:09.820Z,26.70
2022-08-17T17:17:40.603Z,26.67
2022-08-17T17:20:11.720Z,26.27
2022-08-17T17:22:43.978Z,28.67
2022-08-17T17:25:16.268Z,26.90
2022-08-17T17:27:47.838Z,27.75
2022-08-17T17:30:17.883Z,27.25
2022-08-17T17:32:50.967Z,27.38
2022-08-17T17:35:24.810Z,28.85
2022-08-17T17:37:54.018Z,26.75
2022-08-17T17:40:23.887Z,27.80
2022-08-17T17:42:53.535Z,28.15
2022-08-17T17:45:23.262Z,27.80
2022-08-17T17:47:53.171Z,26.92
2022-08-17T17:50:23.444Z,27.08
2022-08-17T17:53:03.297Z,26.95
2022-08-17T17:55:35.462Z,30.38
2022-08-17T17:58:10.836Z,30.80
2022-08-17T18:00:40.990Z,30.08
2022-08-17T18:03:15.148Z,32.97
2022-08-17T18:05:58.355Z,32.50
2022-08-17T18:08:40.255Z,35.60
2022-08-17T18:11:24.231Z,33.67
2022-08-17T18:14:00.248Z,34.63
2022-08-17T18:16:31.881Z,35.95
2022-08-17T18:19:01.821Z,37.97
2022-08-17T18:21:33.281Z,37.05
2022-08-17T18:24:02.875Z,36.75
2022-08-17T18:26:45.014Z,40.47
2022-08-17T18:29:16.395Z,39.45
2022-08-17T18:31:44.710Z,39.22
2022-08-17T18:34:45.876Z,42.60
2022-08-17T18:37:16.120Z,41.28
2022-08-17T18:39:47.951Z,43.00
2022-08-17T18:42:25.982Z,42.65
2022-08-17T18:44:55.490Z,44.10
2022-08-17T18:47:24.983Z,43.53
2022-08-17T18:49:57.813Z,42.65
2022-08-17T18:52:28.717Z,41.35
2022-08-17T18:55:05.692Z,42.42
2022-08-17T18:57:35.285Z,41.45
2022-08-17T19:00:12.039Z,40.40
2022-08-17T19:02:51.064Z,40.58
2022-08-17T19:05:32.708Z,39.22
2022-08-17T19:08:16.322Z,37.65
2022-08-17T19:10:47.363Z,36.60
2022-08-17T19:13:23.798Z,36.25
2022-08-17T19:16:12.091Z,34.97
2022-08-17T19:18:48.667Z,35.42
2022-08-17T19:21:19.974Z,32.22
2022-08-17T19:23:53.771Z,32.90
2022-08-17T19:26:51.249Z,30.98
2022-08-17T19:29:16.553Z,32.22
2022-08-17T19:31:48.014Z,31.10
2022-08-17T19:34:30.227Z,31.20
2022-08-17T19:37:06.869Z,29.63
2022-08-17T19:39:38.225Z,30.33
2022-08-17T19:42:14.321Z,27.48
2022-08-17T19:44:48.836Z,28.58
2022-08-17T19:47:43.065Z,28.83
2022-08-17T19:50:13.601Z,27.65
2022-08-17T19:52:54.250Z,26.73
2022-08-17T19:55:30.310Z,26.20
2022-08-17T19:58:03.477Z,27.55
2022-08-17T20:00:32.589Z,28.15
2022-08-17T20:03:06.192Z,28.45
2022-08-17T20:06:08.481Z,28.65
2022-08-17T20:08:28.638Z,30.05
2022-08-17T20:10:58.635Z,29.25
2022-08-17T20:13:33.290Z,29.08
2022-08-17T20:16:02.668Z,28.65
2022-08-17T20:18:33.646Z,28.00
2022-08-17T20:21:03.032Z,29.77
2022-08-17T20:23:37.322Z,28.23
2022-08-17T20:26:13.820Z,28.92
2022-08-17T20:29:06.647Z,31.73
2022-08-17T20:31:42.860Z,30.05
2022-08-17T20:34:31.050Z,30.50
2022-08-17T20:37:08.622Z,27.88
2022-08-17T20:39:40.030Z,27.88
2022-08-17T20:42:23.259Z,28.98
2022-08-17T20:44:52.490Z,30.33
2022-08-17T20:47:27.139Z,31.60
2022-08-17T20:49:57.354Z,29.77
2022-08-17T20:52:44.657Z,30.55
2022-08-17T20:55:28.319Z,31.45
2022-08-17T20:57:57.940Z,32.08
2022-08-17T21:00:42.301Z,30.88
2022-08-17T21:03:40.031Z,31.48
2022-08-17T21:06:18.559Z,32.45
2022-08-17T21:08:53.325Z,31.52
2022-08-17T21:11:59.952Z,32.78
2022-08-17T21:14:37.967Z,34.67
2022-08-17T21:17:31.683Z,35.50
2022-08-17T21:20:12.562Z,34.33
2022-08-17T21:22:48.789Z,33.90
2022-08-17T21:25:26.250Z,34.35
2022-08-17T21:28:01.380Z,34.97
2022-08-17T21:30:52.089Z,34.40
2022-08-17T21:33:31.522Z,35.40
2022-08-17T21:36:18.296Z,36.67
2022-08-17T21:38:57.814Z,35.80
2022-08-17T21:41:27.568Z,36.17
2022-08-17T21:44:01.670Z,34.40
2022-08-17T21:46:34.342Z,33.88
2022-08-17T21:49:13.464Z,34.05
2022-08-17T21:51:45.071Z,34.35
2022-08-17T21:54:20.861Z,37.70
2022-08-17T21:56:50.067Z,37.50
2022-08-17T21:59:25.663Z,37.72
2022-08-17T22:01:57.553Z,37.13
2022-08-17T22:04:30.083Z,39.30
2022-08-17T22:06:59.162Z,35.85
2022-08-17T22:09:29.088Z,38.05
2022-08-17T22:12:02.482Z,39.80
2022-08-17T22:14:52.063Z,40.63
2022-08-17T22:17:23.576Z,39.92
2022-08-17T22:19:53.009Z,39.70
2022-08-17T22:22:58.815Z,39.17
2022-08-17T22:25:27.010Z,40.10
2022-08-17T22:27:56.897Z,41.88
2022-08-17T22:30:30.301Z,41.28
2022-08-17T22:33:00.618Z,40.58
2022-08-17T22:35:39.092Z,40.70
2022-08-17T22:38:25.761Z,38.83
2022-08-17T22:40:55.098Z,39.80
2022-08-17T22:43:26.388Z,40.97
2022-08-17T22:45:56.365Z,41.75
2022-08-17T22:48:27.666Z,41.22
2022-08-17T22:51:04.884Z,39.35
2022-08-17T22:54:04.946Z,41.08
2022-08-17T22:56:50.668Z,40.80
2022-08-17T22:59:36.741Z,40.78
2022-08-17T23:02:12.665Z,39.05
2022-08-17T23:04:43.361Z,38.65
2022-08-17T23:07:11.958Z,38.28
2022-08-17T23:09:40.313Z,37.38
2022-08-17T23:12:11.590Z,38.83
2022-08-17T23:14:41.187Z,40.15
2022-08-17T23:17:10.184Z,40.45
2022-08-17T23:19:38.489Z,42.75
2022-08-17T23:22:09.175Z,41.40
2022-08-17T23:24:41.001Z,42.15
2022-08-17T23:27:09.230Z,40.97
2022-08-17T23:29:39.333Z,39.38
2022-08-17T23:32:09.794Z,39.75
2022-08-17T23:34:38.577Z,38.00
2022-08-17T23:37:08.422Z,44.38
2022-08-17T23:39:37.207Z,43.58
2022-08-17T23:42:07.789Z,45.67
2022-08-17T23:44:36.284Z,44.95
2022-08-17T23:47:04.867Z,44.22
2022-08-17T23:49:33.449Z,46.42
2022-08-17T23:52:03.085Z,46.22
2022-08-17T23:54:33.780Z,46.00
2022-08-17T23:57:02.044Z,46.13
2022-08-17T23:59:30.364Z,45.78
